Time;durP1;ratioP1;P1;durP2;ratioP2;P2;SDS_P1;SDS_P2;PMS_P1;PMS_P2;Temp;Humidity;BMP_temperature;BMP_pressure;BME280_temperature;BME280_humidity;BME280_pressure;Samples;Min_cycle;Max_cycle;Signal;HPM_P1;HPM_P2
2021/07/19 00:01:15;;;;;;;;;6.75;6.50;;;;;-146.80;100.00;64830.25;4996379;28;45242;-64
2021/07/19 00:03:41;;;;;;;;;12.00;10.00;;;;;-146.80;100.00;64830.25;4996029;28;45222;-63
2021/07/19 00:06:06;;;;;;;;;8.50;8.50;;;;;-146.80;100.00;64830.25;4977417;28;45605;-64
2021/07/19 00:08:31;;;;;;;;;10.75;10.25;;;;;-146.80;100.00;64830.25;4995550;28;45829;-63
2021/07/19 00:10:57;;;;;;;;;10.25;7.75;;;;;-146.80;100.00;64830.25;4995540;28;45443;-62
2021/07/19 00:13:24;;;;;;;;;10.25;9.25;;;;;-146.80;100.00;64830.25;4995573;28;45254;-64
2021/07/19 00:15:49;;;;;;;;;9.25;8.25;;;;;-146.80;100.00;64830.25;4995889;28;45486;-65
2021/07/19 00:18:14;;;;;;;;;9.75;9.00;;;;;-146.80;100.00;64830.25;4995355;28;45770;-65
2021/07/19 00:20:40;;;;;;;;;10.50;8.25;;;;;-146.80;100.00;64830.25;4995346;28;45392;-65
2021/07/19 00:23:05;;;;;;;;;10.25;10.25;;;;;-146.80;100.00;64830.25;4996448;28;45408;-65
2021/07/19 00:25:31;;;;;;;;;12.50;10.75;;;;;-146.80;100.00;64830.25;4996566;28;45413;-65
2021/07/19 00:27:56;;;;;;;;;11.00;10.25;;;;;-146.80;100.00;64830.25;4995348;28;45336;-64
2021/07/19 00:30:23;;;;;;;;;9.50;9.25;;;;;-146.80;100.00;64830.25;4995812;28;45816;-59
2021/07/19 00:32:49;;;;;;;;;8.75;8.50;;;;;-146.80;100.00;64830.25;4995750;28;45249;-63
2021/07/19 00:35:14;;;;;;;;;10.75;9.75;;;;;-146.80;100.00;64830.25;4995317;28;45456;-62
2021/07/19 00:37:41;;;;;;;;;10.25;8.50;;;;;-146.80;100.00;64830.25;4995311;28;45342;-61
2021/07/19 00:40:10;;;;;;;;;13.75;10.75;;;;;-146.80;100.00;64830.25;4995388;28;45375;-62
2021/07/19 00:42:37;;;;;;;;;8.25;6.75;;;;;-146.80;100.00;64830.25;4995424;28;45278;-65
2021/07/19 00:45:08;;;;;;;;;11.00;9.50;;;;;-146.80;100.00;64830.25;4995429;28;45459;-64
2021/07/19 00:47:34;;;;;;;;;11.25;7.50;;;;;-146.80;100.00;64830.25;4995836;28;46506;-64
2021/07/19 00:49:59;;;;;;;;;11.75;10.00;;;;;-146.80;100.00;64830.25;4995187;28;45353;-65
2021/07/19 00:52:24;;;;;;;;;12.25;10.00;;;;;-146.80;100.00;64830.25;4995817;28;45881;-64
2021/07/19 00:54:51;;;;;;;;;7.50;7.50;;;;;-146.80;100.00;64830.25;4978595;28;45579;-64
2021/07/19 00:57:18;;;;;;;;;8.75;8.75;;;;;-146.80;100.00;64830.25;4996684;28;46256;-62
2021/07/19 00:59:44;;;;;;;;;8.00;8.00;;;;;-146.80;100.00;64830.25;4977375;28;45238;-63
2021/07/19 01:02:11;;;;;;;;;10.00;8.50;;;;;-146.80;100.00;64830.25;4994980;28;45420;-61
2021/07/19 01:04:38;;;;;;;;;8.75;7.00;;;;;-146.80;100.00;64830.25;4995183;28;45535;-61
2021/07/19 01:07:05;;;;;;;;;12.25;9.00;;;;;-146.80;100.00;64830.25;4994927;28;46061;-63
2021/07/19 01:09:31;;;;;;;;;12.00;10.50;;;;;-146.80;100.00;64830.25;4995685;28;45471;-62
2021/07/19 01:12:00;;;;;;;;;11.75;11.75;;;;;-146.80;100.00;64830.25;4995204;28;45337;-59
2021/07/19 01:14:26;;;;;;;;;10.75;9.25;;;;;-146.80;100.00;64830.25;4995001;28;45398;-61
2021/07/19 01:16:52;;;;;;;;;10.25;9.75;;;;;-146.80;100.00;64830.25;4996854;28;46756;-63
2021/07/19 01:19:18;;;;;;;;;11.25;9.75;;;;;-146.80;100.00;64830.25;4999985;28;45370;-63
2021/07/19 01:22:29;;;;;;;;;11.75;11.00;;;;;-146.80;100.00;64830.25;4982195;28;45425;-64
2021/07/19 01:25:20;;;;;;;;;13.00;12.00;;;;;-146.80;100.00;64830.25;4986526;28;45681;-59
2021/07/19 01:27:55;;;;;;;;;11.25;10.25;;;;;-146.80;100.00;64830.25;5002037;28;45191;-63
2021/07/19 01:30:21;;;;;;;;;15.75;11.25;;;;;-146.80;100.00;64830.25;4982806;28;45440;-62
2021/07/19 01:32:48;;;;;;;;;12.50;11.00;;;;;-146.80;100.00;64830.25;4998189;28;45370;-58
2021/07/19 01:35:15;;;;;;;;;14.00;12.50;;;;;-146.80;100.00;64830.25;4999916;28;45346;-62
2021/07/19 01:37:44;;;;;;;;;12.50;10.75;;;;;-146.80;100.00;64830.25;4998076;28;46306;-60
2021/07/19 01:40:10;;;;;;;;;10.50;10.50;;;;;-146.80;100.00;64830.25;4997541;28;45330;-60
2021/07/19 01:42:38;;;;;;;;;16.50;12.50;;;;;-146.80;100.00;64830.25;4980237;28;45318;-62
2021/07/19 01:45:09;;;;;;;;;12.50;10.50;;;;;-146.80;100.00;64830.25;4997975;28;45272;-61
2021/07/19 01:47:36;;;;;;;;;11.50;10.00;;;;;-146.80;100.00;64830.25;4997521;28;46570;-63
2021/07/19 01:50:04;;;;;;;;;10.50;8.00;;;;;-146.80;100.00;64830.25;4979956;28;45383;-64
2021/07/19 01:52:29;;;;;;;;;13.25;11.00;;;;;-146.80;100.00;64830.25;4998125;28;45268;-63
2021/07/19 01:54:55;;;;;;;;;10.25;7.75;;;;;-146.80;100.00;64830.25;4980624;28;45489;-63
2021/07/19 01:57:22;;;;;;;;;13.25;11.50;;;;;-146.80;100.00;64830.25;4997819;28;46022;-61
2021/07/19 01:59:49;;;;;;;;;15.25;11.75;;;;;-146.80;100.00;64830.25;4997769;28;45357;-63
2021/07/19 02:02:19;;;;;;;;;8.00;7.00;;;;;-146.80;100.00;64830.25;4997592;28;45397;-62
2021/07/19 02:04:45;;;;;;;;;13.00;11.25;;;;;-146.80;100.00;64830.25;4996816;28;45236;-63
2021/07/19 02:07:12;;;;;;;;;12.25;10.75;;;;;-146.80;100.00;64830.25;4997227;28;46260;-62
2021/07/19 02:09:37;;;;;;;;;12.25;11.75;;;;;-146.80;100.00;64830.25;4997314;28;45499;-64
2021/07/19 02:12:04;;;;;;;;;16.00;13.50;;;;;-146.80;100.00;64830.25;4997380;28;45344;-62
2021/07/19 02:14:31;;;;;;;;;15.00;14.00;;;;;-146.80;100.00;64830.25;4997926;28;45427;-64
2021/07/19 02:16:58;;;;;;;;;16.25;15.25;;;;;-146.80;100.00;64830.25;4979702;28;47238;-60
2021/07/19 02:19:25;;;;;;;;;19.00;18.25;;;;;-146.80;100.00;64830.25;4979609;28;45408;-62
2021/07/19 02:21:51;;;;;;;;;16.25;16.25;;;;;-146.80;100.00;64830.25;4998541;28;45422;-61
2021/07/19 02:24:18;;;;;;;;;18.25;15.50;;;;;-146.80;100.00;64830.25;4997351;28;45459;-63
2021/07/19 02:26:44;;;;;;;;;15.75;14.00;;;;;-146.80;100.00;64830.25;4997030;28;47317;-62
2021/07/19 02:29:10;;;;;;;;;14.25;13.50;;;;;-146.80;100.00;64830.25;4996230;28;45320;-61
2021/07/19 02:31:36;;;;;;;;;16.00;13.25;;;;;-146.80;100.00;64830.25;4997079;28;45505;-63
2021/07/19 02:34:03;;;;;;;;;14.50;12.75;;;;;-146.80;100.00;64830.25;4996870;28;45743;-63
2021/07/19 02:36:29;;;;;;;;;14.00;14.00;;;;;-146.80;100.00;64830.25;4996966;28;46702;-60
2021/07/19 02:38:55;;;;;;;;;11.00;11.00;;;;;-146.80;100.00;64830.25;4979533;28;45698;-60
2021/07/19 02:41:24;;;;;;;;;12.00;9.75;;;;;-146.80;100.00;64830.25;4997201;28;45337;-62
2021/07/19 02:43:51;;;;;;;;;14.50;13.75;;;;;-146.80;100.00;64830.25;4997257;28;45380;-62
2021/07/19 02:46:19;;;;;;;;;13.75;11.75;;;;;-146.80;100.00;64830.25;4997580;28;46198;-62
2021/07/19 02:48:46;;;;;;;;;14.50;11.00;;;;;-146.80;100.00;64830.25;4997510;28;45226;-64
2021/07/19 02:51:14;;;;;;;;;16.25;13.00;;;;;-146.80;100.00;64830.25;4996921;28;45433;-63
2021/07/19 02:53:40;;;;;;;;;16.00;13.75;;;;;-146.80;100.00;64830.25;4996805;28;45494;-58
2021/07/19 02:56:07;;;;;;;;;13.25;12.75;;;;;-146.80;100.00;64830.25;4996339;28;45423;-62
2021/07/19 02:58:32;;;;;;;;;13.00;12.50;;;;;-146.80;100.00;64830.25;4996983;28;45329;-59
2021/07/19 03:01:00;;;;;;;;;19.50;14.00;;;;;-146.80;100.00;64830.25;4997041;28;45190;-61
2021/07/19 03:03:28;;;;;;;;;14.75;12.25;;;;;-146.80;100.00;64830.25;4979640;28;45278;-62
2021/07/19 03:06:01;;;;;;;;;12.50;11.25;;;;;-146.80;100.00;64830.25;4978746;28;47271;-62
2021/07/19 03:08:32;;;;;;;;;12.00;12.00;;;;;-146.80;100.00;64830.25;4998045;28;45257;-63
2021/07/19 03:10:59;;;;;;;;;12.75;12.50;;;;;-146.80;100.00;64830.25;4997116;28;45374;-63
2021/07/19 03:13:28;;;;;;;;;14.25;13.00;;;;;-146.80;100.00;64830.25;4997329;28;45505;-62
2021/07/19 03:15:56;;;;;;;;;15.00;13.25;;;;;-146.80;100.00;64830.25;4996127;28;45313;-62
2021/07/19 03:18:22;;;;;;;;;14.75;13.25;;;;;-146.80;100.00;64830.25;4996254;28;45482;-61
2021/07/19 03:20:50;;;;;;;;;12.25;11.75;;;;;-146.80;100.00;64830.25;4978652;28;45391;-62
2021/07/19 03:23:19;;;;;;;;;14.25;12.75;;;;;-146.80;100.00;64830.25;4978641;28;45247;-60
2021/07/19 03:25:45;;;;;;;;;15.00;14.25;;;;;-146.80;100.00;64830.25;4995988;28;46334;-64
2021/07/19 03:28:12;;;;;;;;;15.00;14.00;;;;;-146.80;100.00;64830.25;4996013;28;45565;-63
2021/07/19 03:30:40;;;;;;;;;15.25;13.50;;;;;-146.80;100.00;64830.25;4996179;28;45379;-64
2021/07/19 03:33:06;;;;;;;;;13.25;13.25;;;;;-146.80;100.00;64830.25;4997286;28;45509;-62
2021/07/19 03:35:32;;;;;;;;;16.25;13.00;;;;;-146.80;100.00;64830.25;4996753;28;45576;-63
2021/07/19 03:38:00;;;;;;;;;14.00;12.25;;;;;-146.80;100.00;64830.25;4996425;28;45360;-64
2021/07/19 03:40:26;;;;;;;;;13.00;13.00;;;;;-146.80;100.00;64830.25;4995312;28;45440;-62
2021/07/19 03:42:55;;;;;;;;;13.75;11.75;;;;;-146.80;100.00;64830.25;4996956;28;45271;-62
2021/07/19 03:45:22;;;;;;;;;14.50;14.00;;;;;-146.80;100.00;64830.25;4996293;28;46329;-63
2021/07/19 03:47:48;;;;;;;;;17.50;13.75;;;;;-146.80;100.00;64830.25;4995787;28;45465;-63
2021/07/19 03:50:15;;;;;;;;;13.25;11.25;;;;;-146.80;100.00;64830.25;4995949;28;45368;-62
2021/07/19 03:52:41;;;;;;;;;12.75;12.25;;;;;-146.80;100.00;64830.25;4995936;28;45456;-62
2021/07/19 03:55:08;;;;;;;;;13.50;13.50;;;;;-146.80;100.00;64830.25;4995930;28;46069;-58
2021/07/19 03:57:38;;;;;;;;;11.75;10.00;;;;;-146.80;100.00;64830.25;4996951;28;45321;-59
2021/07/19 04:00:10;;;;;;;;;17.25;15.50;;;;;-146.80;100.00;64830.25;4995814;28;45273;-57
2021/07/19 04:02:37;;;;;;;;;14.25;12.75;;;;;-146.80;100.00;64830.25;4995899;28;45527;-59
2021/07/19 04:05:06;;;;;;;;;15.25;15.25;;;;;-146.80;100.00;64830.25;4995313;28;46116;-59
2021/07/19 04:07:36;;;;;;;;;15.75;14.00;;;;;-146.80;100.00;64830.25;4978021;28;45337;-64
2021/07/19 04:10:05;;;;;;;;;14.25;12.00;;;;;-146.80;100.00;64830.25;4995863;28;45186;-64
2021/07/19 04:12:30;;;;;;;;;13.75;13.00;;;;;-146.80;100.00;64830.25;4996160;28;45563;-63
2021/07/19 04:14:57;;;;;;;;;14.00;12.00;;;;;-146.80;100.00;64830.25;4995166;28;46206;-64
2021/07/19 04:17:22;;;;;;;;;16.00;14.00;;;;;-146.80;100.00;64830.25;4995553;28;45337;-63
2021/07/19 04:19:48;;;;;;;;;17.25;12.75;;;;;-146.80;100.00;64830.25;4996527;28;45590;-62
2021/07/19 04:22:13;;;;;;;;;16.50;15.00;;;;;-146.80;100.00;64830.25;4978928;28;45405;-63
2021/07/19 04:24:40;;;;;;;;;16.50;15.25;;;;;-146.80;100.00;64830.25;4995654;28;45434;-65
2021/07/19 04:27:06;;;;;;;;;13.25;13.00;;;;;-146.80;100.00;64830.25;4977725;28;45267;-62
2021/07/19 04:29:32;;;;;;;;;12.00;11.25;;;;;-146.80;100.00;64830.25;4996107;28;45265;-64
2021/07/19 04:31:59;;;;;;;;;16.00;13.00;;;;;-146.80;100.00;64830.25;4996607;28;45669;-60
2021/07/19 04:34:28;;;;;;;;;13.75;13.00;;;;;-146.80;100.00;64830.25;4995515;28;45420;-60
2021/07/19 04:37:00;;;;;;;;;15.25;13.75;;;;;-146.80;100.00;64830.25;4993904;28;45508;-61
2021/07/19 04:39:26;;;;;;;;;18.25;15.00;;;;;-146.80;100.00;64830.25;4995138;28;45351;-62
2021/07/19 04:41:52;;;;;;;;;20.50;15.25;;;;;-146.80;100.00;64830.25;4995364;28;45329;-64
2021/07/19 04:44:17;;;;;;;;;15.00;15.00;;;;;-146.80;100.00;64830.25;4995704;28;45347;-64
2021/07/19 04:46:42;;;;;;;;;17.25;13.25;;;;;-146.80;100.00;64830.25;4995179;28;45356;-64
2021/07/19 04:49:08;;;;;;;;;16.00;15.00;;;;;-146.80;100.00;64830.25;4995577;28;45336;-64
2021/07/19 04:51:35;;;;;;;;;23.00;19.50;;;;;-146.80;100.00;64830.25;4997333;28;45573;-60
2021/07/19 04:54:02;;;;;;;;;17.50;15.50;;;;;-146.80;100.00;64830.25;4998323;28;45375;-62
2021/07/19 04:56:31;;;;;;;;;16.00;14.50;;;;;-146.80;100.00;64830.25;4963959;28;45349;-61
2021/07/19 04:58:59;;;;;;;;;15.00;13.50;;;;;-146.80;100.00;64830.25;4998529;28;45342;-62
2021/07/19 05:01:27;;;;;;;;;14.00;14.00;;;;;-146.80;100.00;64830.25;4998570;28;45258;-61
2021/07/19 05:03:55;;;;;;;;;16.75;15.00;;;;;-146.80;100.00;64830.25;4998062;28;46878;-64
2021/07/19 05:06:23;;;;;;;;;14.75;13.25;;;;;-146.80;100.00;64830.25;4998982;28;45386;-62
2021/07/19 05:08:50;;;;;;;;;19.50;15.50;;;;;-146.80;100.00;64830.25;4998823;28;45222;-64
2021/07/19 05:11:19;;;;;;;;;17.75;16.00;;;;;-146.80;100.00;64830.25;4998866;28;45270;-64
2021/07/19 05:13:45;;;;;;;;;18.50;16.00;;;;;-146.80;100.00;64830.25;4998367;28;45488;-66
2021/07/19 05:16:11;;;;;;;;;15.50;14.00;;;;;-146.80;100.00;64830.25;4998074;28;45399;-65
2021/07/19 05:18:36;;;;;;;;;16.75;14.50;;;;;-146.80;100.00;64830.25;4998835;28;45509;-60
2021/07/19 05:21:02;;;;;;;;;19.25;16.75;;;;;-146.80;100.00;64830.25;4998938;28;45298;-62
2021/07/19 05:23:27;;;;;;;;;13.75;13.75;;;;;-146.80;100.00;64830.25;4998032;28;47651;-63
2021/07/19 05:25:54;;;;;;;;;17.75;15.50;;;;;-146.80;100.00;64830.25;4980599;28;45227;-65
2021/07/19 05:28:19;;;;;;;;;16.75;14.25;;;;;-146.80;100.00;64830.25;4998471;28;45262;-62
2021/07/19 05:30:55;;;;;;;;;20.50;16.25;;;;;-146.80;100.00;64830.25;4999383;28;45293;-60
2021/07/19 05:33:23;;;;;;;;;20.50;15.25;;;;;-146.80;100.00;64830.25;4980935;28;46992;-63
2021/07/19 05:35:50;;;;;;;;;18.25;15.50;;;;;-146.80;100.00;64830.25;4998523;28;45494;-62
2021/07/19 05:38:16;;;;;;;;;17.75;15.00;;;;;-146.80;100.00;64830.25;4991755;28;45500;-63
2021/07/19 05:40:43;;;;;;;;;16.00;13.50;;;;;-146.80;100.00;64830.25;4980169;28;45476;-64
2021/07/19 05:43:09;;;;;;;;;17.50;14.50;;;;;-146.80;100.00;64830.25;4963599;28;46467;-61
2021/07/19 05:45:34;;;;;;;;;13.50;13.50;;;;;-146.80;100.00;64830.25;4960765;28;45355;-59
2021/07/19 05:48:00;;;;;;;;;20.00;15.75;;;;;-146.80;100.00;64830.25;4983008;28;45234;-63
2021/07/19 05:50:27;;;;;;;;;16.50;14.00;;;;;-146.80;100.00;64830.25;4997980;28;45258;-64
2021/07/19 05:52:52;;;;;;;;;16.50;13.75;;;;;-146.80;100.00;64830.25;4989587;28;47137;-66
2021/07/19 05:55:18;;;;;;;;;15.50;14.50;;;;;-146.80;100.00;64830.25;4978623;28;45382;-64
2021/07/19 05:57:44;;;;;;;;;15.00;15.00;;;;;-146.80;100.00;64830.25;4979524;28;45348;-65
2021/07/19 06:00:14;;;;;;;;;18.00;16.25;;;;;-146.80;100.00;64830.25;4963658;28;45556;-63
2021/07/19 06:02:40;;;;;;;;;15.00;14.75;;;;;-146.80;100.00;64830.25;4984360;28;46537;-61
2021/07/19 06:05:07;;;;;;;;;18.75;16.25;;;;;-146.80;100.00;64830.25;4981461;28;45451;-62
2021/07/19 06:07:33;;;;;;;;;17.00;16.25;;;;;-146.80;100.00;64830.25;4986501;28;45484;-62
2021/07/19 06:10:00;;;;;;;;;15.50;14.25;;;;;-146.80;100.00;64830.25;4995322;28;45372;-65
2021/07/19 06:12:25;;;;;;;;;17.50;14.75;;;;;-146.80;100.00;64830.25;4986169;28;46058;-65
2021/07/19 06:14:51;;;;;;;;;18.50;16.50;;;;;-146.80;100.00;64830.25;4996120;28;45401;-62
2021/07/19 06:17:16;;;;;;;;;19.50;16.00;;;;;-146.80;100.00;64830.25;4997808;28;45546;-57
2021/07/19 06:19:42;;;;;;;;;24.50;16.50;;;;;-146.80;100.00;64830.25;4998299;28;45534;-61
2021/07/19 06:22:10;;;;;;;;;18.25;16.50;;;;;-146.80;100.00;64830.25;4998124;28;46002;-70
